createdAt,value
2023-01-11T00:01:16.959Z,36.53
2023-01-11T00:04:37.915Z,35.60
2023-01-11T00:07:59.165Z,36.84
2023-01-11T00:11:22.695Z,36.06
2023-01-11T00:14:46.459Z,37.37
2023-01-11T00:18:07.599Z,40.33
2023-01-11T00:21:29.594Z,38.76
2023-01-11T00:24:50.437Z,39.66
2023-01-11T00:28:14.296Z,40.01
2023-01-11T00:31:35.245Z,38.39
2023-01-11T00:34:56.149Z,36.54
2023-01-11T00:38:37.072Z,38.28
2023-01-11T00:42:10.285Z,45.57
2023-01-11T00:45:55.423Z,43.47
2023-01-11T00:49:16.206Z,39.02
2023-01-11T00:52:37.097Z,37.99
2023-01-11T00:55:57.945Z,35.68
2023-01-11T00:59:19.080Z,37.06
2023-01-11T01:02:42.817Z,37.36
2023-01-11T01:06:03.800Z,32.86
2023-01-11T01:09:24.744Z,33.11
2023-01-11T01:12:57.986Z,33.21
2023-01-11T01:16:19.800Z,32.22
2023-01-11T01:19:43.329Z,32.52
2023-01-11T01:23:04.127Z,33.64
2023-01-11T01:26:26.200Z,31.90
2023-01-11T01:29:47.602Z,33.79
2023-01-11T01:33:08.472Z,106.49
2023-01-11T01:36:31.943Z,133.83
2023-01-11T01:39:58.969Z,66.04
2023-01-11T01:43:21.395Z,47.07
2023-01-11T01:46:44.895Z,39.34
2023-01-11T01:50:13.397Z,35.22
2023-01-11T01:53:41.490Z,33.56
2023-01-11T01:57:09.125Z,30.22
2023-01-11T02:00:30.235Z,26.66
2023-01-11T02:03:58.024Z,27.40
2023-01-11T02:07:24.680Z,27.62
2023-01-11T02:10:48.041Z,28.01
2023-01-11T02:14:19.739Z,28.08
2023-01-11T02:17:28.299Z,27.55
2023-01-11T02:21:12.155Z,30.02
2023-01-11T02:24:59.359Z,30.51
2023-01-11T02:28:18.008Z,30.40
2023-01-11T02:31:37.014Z,32.59
2023-01-11T02:34:53.922Z,29.37
2023-01-11T02:38:13.834Z,28.74
2023-01-11T02:41:52.128Z,28.69
2023-01-11T02:45:18.347Z,27.97
2023-01-11T02:48:35.822Z,27.32
2023-01-11T02:51:53.941Z,26.42
2023-01-11T02:55:05.474Z,26.13
2023-01-11T02:58:16.810Z,28.30
2023-01-11T03:01:25.882Z,27.38
2023-01-11T03:04:36.156Z,27.16
2023-01-11T03:08:03.042Z,27.69
2023-01-11T03:11:37.368Z,27.80
2023-01-11T03:15:03.123Z,27.80
2023-01-11T03:18:40.895Z,28.39
2023-01-11T03:22:02.898Z,35.12
2023-01-11T03:25:26.569Z,38.75
2023-01-11T03:28:43.717Z,45.44
2023-01-11T03:32:00.451Z,47.45
2023-01-11T03:35:26.991Z,43.41
2023-01-11T03:38:44.411Z,49.66
2023-01-11T03:41:57.447Z,45.86
2023-01-11T03:45:07.840Z,46.71
2023-01-11T03:48:21.618Z,46.99
2023-01-11T03:51:41.946Z,50.18
2023-01-11T03:54:48.616Z,50.47
2023-01-11T03:57:58.691Z,48.25
2023-01-11T04:01:06.831Z,50.72
2023-01-11T04:04:13.898Z,45.69
2023-01-11T04:07:22.866Z,46.73
2023-01-11T04:10:29.901Z,51.62
2023-01-11T04:13:36.042Z,52.66
2023-01-11T04:16:43.146Z,53.44
2023-01-11T04:19:49.349Z,52.28
2023-01-11T04:22:59.002Z,54.04
2023-01-11T04:26:05.295Z,57.06
2023-01-11T04:29:13.756Z,55.62
2023-01-11T04:32:19.958Z,53.71
2023-01-11T04:35:26.944Z,53.32
2023-01-11T04:38:36.615Z,50.82
2023-01-11T04:41:55.898Z,59.72
2023-01-11T04:45:01.928Z,71.33
2023-01-11T04:48:09.610Z,70.31
2023-01-11T04:51:15.593Z,63.92
2023-01-11T04:54:25.139Z,66.56
2023-01-11T04:57:31.184Z,67.60
2023-01-11T05:00:38.132Z,69.46
2023-01-11T05:03:44.298Z,77.64
2023-01-11T05:06:51.473Z,77.62
2023-01-11T05:10:00.303Z,79.30
2023-01-11T05:13:07.261Z,81.49
2023-01-11T05:16:16.400Z,74.02
2023-01-11T05:19:23.694Z,70.93
2023-01-11T05:22:29.779Z,78.87
2023-01-11T05:25:39.231Z,80.54
2023-01-11T05:28:45.313Z,76.22
2023-01-11T05:31:52.841Z,82.07
2023-01-11T05:34:58.799Z,91.81
2023-01-11T05:38:05.687Z,100.11
2023-01-11T05:41:16.712Z,92.80
2023-01-11T05:44:36.021Z,96.76
2023-01-11T05:47:42.148Z,98.46
2023-01-11T05:50:54.419Z,103.57
2023-01-11T05:54:00.736Z,101.82
2023-01-11T05:57:12.134Z,102.74
2023-01-11T06:00:19.928Z,97.39
2023-01-11T06:03:29.283Z,93.54
2023-01-11T06:06:36.533Z,104.69
2023-01-11T06:09:43.596Z,111.41
2023-01-11T06:13:16.891Z,99.59
2023-01-11T06:16:25.395Z,91.91
2023-01-11T06:19:31.491Z,82.93
2023-01-11T06:22:38.450Z,75.96
2023-01-11T06:25:45.490Z,69.81
2023-01-11T06:28:55.632Z,69.85
2023-01-11T06:32:01.688Z,72.13
2023-01-11T06:35:09.999Z,74.84
2023-01-11T06:38:19.524Z,75.99
2023-01-11T06:41:26.542Z,71.82
2023-01-11T06:44:36.258Z,69.04
2023-01-11T06:47:43.232Z,73.75
2023-01-11T06:50:51.363Z,72.05
2023-01-11T06:53:58.305Z,72.47
2023-01-11T06:57:04.443Z,74.30
2023-01-11T07:00:16.575Z,70.76
2023-01-11T07:03:24.379Z,64.24
2023-01-11T07:06:32.304Z,62.48
2023-01-11T07:09:53.257Z,56.82
2023-01-11T07:13:16.391Z,56.13
2023-01-11T07:16:39.977Z,57.50
2023-01-11T07:20:00.988Z,59.56
2023-01-11T07:23:22.299Z,60.59
2023-01-11T07:26:44.050Z,65.82
2023-01-11T07:29:53.755Z,73.36
2023-01-11T07:33:06.538Z,76.92
2023-01-11T07:36:13.705Z,75.27
2023-01-11T07:39:19.823Z,74.74
2023-01-11T07:42:39.316Z,64.62
2023-01-11T07:45:51.833Z,60.52
2023-01-11T07:49:01.301Z,59.59
2023-01-11T07:52:07.747Z,56.15
2023-01-11T07:55:14.843Z,49.40
2023-01-11T07:58:20.941Z,46.83
2023-01-11T08:01:29.014Z,42.62
2023-01-11T08:04:38.158Z,40.96
2023-01-11T08:07:45.903Z,42.49
2023-01-11T08:11:13.883Z,44.07
2023-01-11T08:14:33.589Z,45.25
2023-01-11T08:17:40.616Z,48.18
2023-01-11T08:20:50.698Z,48.66
2023-01-11T08:23:57.325Z,57.94
2023-01-11T08:27:04.641Z,57.00
2023-01-11T08:30:13.043Z,57.21
2023-01-11T08:33:20.179Z,59.10
2023-01-11T08:36:28.967Z,56.62
2023-01-11T08:39:36.264Z,52.19
2023-01-11T08:42:42.679Z,54.51
2023-01-11T08:45:49.660Z,49.44
2023-01-11T08:48:56.182Z,46.83
2023-01-11T08:52:05.682Z,46.57
2023-01-11T08:55:12.360Z,47.18
2023-01-11T08:58:21.485Z,45.33
2023-01-11T09:01:28.085Z,45.29
2023-01-11T09:04:35.677Z,47.79
2023-01-11T09:07:44.497Z,47.66
2023-01-11T09:10:52.039Z,48.83
2023-01-11T09:13:58.215Z,48.66
2023-01-11T09:17:05.228Z,46.69
2023-01-11T09:20:13.902Z,46.42
2023-01-11T09:23:23.733Z,42.84
2023-01-11T09:26:29.839Z,45.90
2023-01-11T09:29:37.560Z,50.69
2023-01-11T09:32:44.452Z,53.31
2023-01-11T09:35:51.792Z,49.96
2023-01-11T09:39:02.433Z,44.88
2023-01-11T09:42:36.779Z,48.38
2023-01-11T09:45:47.119Z,48.47
2023-01-11T09:49:03.570Z,50.31
2023-01-11T09:52:29.519Z,47.81
2023-01-11T09:55:46.786Z,49.67
2023-01-11T09:59:15.137Z,54.57
2023-01-11T10:02:45.704Z,58.98
2023-01-11T10:06:14.022Z,52.28
2023-01-11T10:18:39.747Z,53.92
2023-01-11T10:20:50.730Z,54.58
2023-01-11T10:24:08.794Z,48.85
2023-01-11T10:27:25.688Z,47.78
2023-01-11T10:30:53.947Z,49.69
2023-01-11T10:34:24.956Z,49.05
2023-01-11T10:37:57.544Z,48.31
2023-01-11T10:41:26.569Z,50.00
2023-01-11T10:44:46.878Z,50.71
2023-01-11T10:48:05.789Z,49.03
2023-01-11T10:51:28.201Z,45.00
2023-01-11T10:54:39.383Z,45.26
2023-01-11T10:58:11.287Z,43.38
2023-01-11T11:01:39.045Z,46.51
2023-01-11T11:05:17.848Z,40.85
2023-01-11T11:08:36.943Z,40.28
2023-01-11T11:11:57.967Z,37.48
2023-01-11T11:15:16.702Z,36.05
2023-01-11T11:18:23.667Z,40.76
2023-01-11T11:21:41.422Z,37.32
2023-01-11T11:24:58.416Z,31.08
2023-01-11T11:28:09.116Z,31.16
2023-01-11T11:31:16.169Z,33.69
2023-01-11T11:34:27.579Z,34.28
2023-01-11T11:37:45.588Z,27.46
2023-01-11T11:41:03.610Z,27.48
2023-01-11T11:44:21.763Z,25.05
2023-01-11T11:47:27.961Z,23.65
2023-01-11T11:50:44.644Z,19.69
2023-01-11T11:53:58.118Z,16.90
2023-01-11T11:57:20.483Z,15.96
2023-01-11T12:00:32.229Z,16.30
2023-01-11T12:03:39.199Z,16.67
2023-01-11T12:06:49.253Z,16.59
2023-01-11T12:10:08.720Z,21.65
2023-01-11T12:13:33.254Z,21.68
2023-01-11T12:16:44.829Z,17.35
2023-01-11T12:19:50.895Z,18.08
2023-01-11T12:23:21.673Z,17.86
2023-01-11T12:26:41.395Z,18.98
2023-01-11T12:30:10.862Z,17.28
2023-01-11T12:33:45.206Z,17.54
2023-01-11T12:37:11.701Z,18.77
2023-01-11T12:40:35.730Z,20.06
2023-01-11T12:44:07.966Z,19.88
2023-01-11T12:47:55.344Z,24.25
2023-01-11T12:51:26.051Z,24.01
2023-01-11T12:54:55.837Z,20.65
2023-01-11T12:58:16.546Z,23.23
2023-01-11T13:01:47.432Z,17.17
2023-01-11T13:05:11.932Z,16.08
2023-01-11T13:08:37.524Z,16.58
2023-01-11T13:12:00.636Z,17.58
2023-01-11T13:15:35.169Z,18.00
2023-01-11T13:19:01.413Z,18.31
2023-01-11T13:22:18.502Z,18.12
2023-01-11T13:25:31.845Z,16.67
2023-01-11T13:28:45.095Z,17.29
2023-01-11T13:31:55.721Z,18.16
2023-01-11T13:35:18.397Z,19.28
2023-01-11T13:38:44.844Z,16.37
2023-01-11T13:41:58.163Z,14.93
2023-01-11T13:45:20.573Z,14.00
2023-01-11T13:48:36.744Z,14.10
2023-01-11T13:51:59.412Z,14.29
2023-01-11T13:55:25.322Z,15.05
2023-01-11T13:58:45.483Z,14.81
2023-01-11T14:02:06.185Z,12.88
2023-01-11T14:05:21.866Z,13.74
2023-01-11T14:09:12.096Z,12.50
2023-01-11T14:12:39.976Z,13.37
2023-01-11T14:16:01.944Z,15.52
2023-01-11T14:19:25.399Z,18.36
2023-01-11T14:22:46.164Z,16.38
2023-01-11T14:26:59.034Z,15.96
2023-01-11T14:30:40.328Z,17.53
2023-01-11T14:34:35.769Z,20.91
2023-01-11T14:38:28.801Z,20.38
2023-01-11T14:42:31.135Z,19.29
2023-01-11T14:46:18.415Z,21.83
2023-01-11T14:50:00.469Z,26.88
2023-01-11T14:53:12.857Z,26.30
2023-01-11T14:56:40.052Z,31.76
2023-01-11T14:59:48.721Z,34.30
2023-01-11T15:03:19.783Z,32.82
2023-01-11T15:06:26.989Z,42.53
2023-01-11T15:09:49.489Z,49.33
2023-01-11T15:13:00.213Z,39.78
2023-01-11T15:16:35.395Z,30.71
2023-01-11T15:19:47.462Z,24.48
2023-01-11T15:23:02.886Z,23.79
2023-01-11T15:26:11.351Z,24.10
2023-01-11T15:29:27.165Z,24.46
2023-01-11T15:32:38.959Z,27.22
2023-01-11T15:36:05.396Z,30.13
2023-01-11T15:39:15.599Z,31.82
2023-01-11T15:43:21.311Z,37.94
2023-01-11T15:47:08.533Z,68.08
2023-01-11T15:50:55.420Z,77.59
2023-01-11T15:54:47.689Z,66.19
2023-01-11T15:58:48.111Z,64.66
2023-01-11T16:02:44.789Z,52.75
2023-01-11T16:06:10.477Z,46.64
2023-01-11T16:09:46.894Z,59.15
2023-01-11T16:13:26.545Z,66.71
2023-01-11T16:16:40.209Z,61.73
2023-01-11T16:19:53.337Z,63.98
2023-01-11T16:23:07.672Z,72.31
2023-01-11T16:26:22.567Z,75.40
2023-01-11T16:29:35.636Z,72.61
2023-01-11T16:32:42.682Z,73.61
2023-01-11T16:35:48.901Z,67.77
2023-01-11T16:39:13.705Z,67.30
2023-01-11T16:42:21.487Z,83.33
2023-01-11T16:45:45.177Z,81.33
2023-01-11T16:48:51.257Z,76.19
2023-01-11T16:52:01.303Z,80.82
2023-01-11T16:55:25.733Z,80.69
2023-01-11T16:58:36.350Z,98.90
2023-01-11T17:01:55.548Z,90.44
2023-01-11T17:05:02.654Z,92.37
2023-01-11T17:08:30.926Z,92.67
2023-01-11T17:11:50.235Z,90.75
2023-01-11T17:15:26.119Z,98.04
2023-01-11T17:18:33.484Z,100.65
2023-01-11T17:21:39.962Z,81.05
2023-01-11T17:24:55.648Z,65.46
2023-01-11T17:28:09.642Z,49.22
2023-01-11T17:31:28.378Z,38.82
2023-01-11T17:34:36.810Z,38.22
2023-01-11T17:37:45.889Z,36.84
2023-01-11T17:40:53.206Z,34.89
2023-01-11T17:44:15.790Z,34.21
2023-01-11T17:47:23.504Z,32.50
2023-01-11T17:50:38.574Z,34.09
2023-01-11T17:53:53.489Z,36.10
2023-01-11T17:57:04.068Z,40.59
2023-01-11T18:00:30.068Z,40.58
2023-01-11T18:03:46.290Z,41.84
2023-01-11T18:06:58.037Z,47.00
2023-01-11T18:10:04.960Z,56.50
2023-01-11T18:13:31.611Z,50.30
2023-01-11T18:17:03.544Z,55.14
2023-01-11T18:20:39.507Z,56.67
2023-01-11T18:23:46.413Z,53.12
2023-01-11T18:27:08.026Z,42.76
2023-01-11T18:30:41.446Z,34.97
2023-01-11T18:33:50.441Z,58.37
2023-01-11T18:37:01.701Z,72.95
2023-01-11T18:40:09.473Z,69.76
2023-01-11T18:43:18.207Z,59.50
2023-01-11T18:46:24.771Z,51.49
2023-01-11T18:49:34.789Z,46.50
2023-01-11T18:52:41.120Z,40.25
2023-01-11T18:55:49.410Z,37.55
2023-01-11T18:58:55.792Z,39.04
2023-01-11T19:05:47.840Z,42.65
2023-01-11T19:08:55.053Z,48.50
2023-01-11T19:12:01.228Z,39.81
2023-01-11T19:15:09.597Z,36.46
2023-01-11T19:18:16.438Z,34.53
2023-01-11T19:21:26.158Z,30.80
2023-01-11T19:24:32.474Z,30.33
2023-01-11T19:27:40.061Z,30.64
2023-01-11T19:30:46.311Z,30.66
2023-01-11T19:33:53.444Z,31.80
2023-01-11T19:37:02.328Z,35.84
2023-01-11T19:40:11.780Z,35.97
2023-01-11T19:43:18.002Z,36.22
2023-01-11T19:46:31.729Z,36.07
2023-01-11T19:49:38.407Z,33.58
2023-01-11T19:52:49.637Z,33.31
2023-01-11T19:55:55.867Z,30.31
2023-01-11T19:59:03.278Z,26.96
2023-01-11T20:02:10.086Z,24.45
2023-01-11T20:05:17.113Z,26.28
2023-01-11T20:08:25.933Z,23.74
2023-01-11T20:11:32.967Z,25.09
2023-01-11T20:14:40.898Z,23.63
2023-01-11T20:17:48.128Z,22.78
2023-01-11T20:20:59.075Z,22.76
2023-01-11T20:24:09.991Z,22.71
2023-01-11T20:27:16.304Z,23.94
2023-01-11T20:30:23.677Z,25.13
2023-01-11T20:33:30.952Z,24.35
2023-01-11T20:36:38.069Z,22.04
2023-01-11T20:39:47.252Z,22.44
2023-01-11T20:42:54.375Z,20.84
2023-01-11T20:46:00.596Z,22.75
2023-01-11T20:49:10.033Z,26.42
2023-01-11T20:52:16.564Z,26.66
2023-01-11T20:55:26.431Z,24.61
2023-01-11T20:58:32.788Z,22.97
2023-01-11T21:01:41.254Z,24.07
2023-01-11T21:04:47.355Z,22.36
2023-01-11T21:07:56.617Z,21.98
2023-01-11T21:11:12.474Z,22.63
2023-01-11T21:14:19.579Z,22.05
2023-01-11T21:17:25.774Z,21.25
2023-01-11T21:20:33.504Z,19.57
2023-01-11T21:23:39.593Z,22.40
2023-01-11T21:26:49.340Z,24.25
2023-01-11T21:29:55.508Z,22.35
2023-01-11T21:33:02.543Z,20.28
2023-01-11T21:36:14.076Z,19.97
2023-01-11T21:39:21.576Z,17.25
2023-01-11T21:42:30.646Z,16.62
2023-01-11T21:45:37.647Z,15.52
2023-01-11T21:48:43.719Z,16.31
2023-01-11T21:51:50.725Z,15.89
2023-01-11T21:54:56.907Z,14.86
2023-01-11T21:58:06.441Z,14.63
2023-01-11T22:01:14.475Z,13.03
2023-01-11T22:04:24.776Z,12.89
2023-01-11T22:07:32.074Z,15.26
2023-01-11T22:10:39.572Z,14.97
2023-01-11T22:13:48.651Z,12.48
2023-01-11T22:16:56.434Z,14.12
2023-01-11T22:20:02.513Z,12.60
2023-01-11T22:23:09.377Z,12.29
2023-01-11T22:26:17.978Z,11.06
2023-01-11T22:29:29.749Z,10.85
2023-01-11T22:32:35.887Z,10.39
2023-01-11T22:35:43.001Z,11.87
2023-01-11T22:38:49.654Z,11.62
2023-01-11T22:41:56.760Z,12.12
2023-01-11T22:45:05.683Z,13.09
2023-01-11T22:48:12.636Z,14.19
2023-01-11T22:51:22.273Z,14.96
2023-01-11T22:54:29.402Z,14.90
2023-01-11T22:57:35.610Z,15.30
2023-01-11T23:00:45.263Z,18.92
2023-01-11T23:03:52.092Z,21.99
2023-01-11T23:06:59.354Z,22.50
2023-01-11T23:10:08.792Z,17.57
2023-01-11T23:13:28.190Z,16.31
2023-01-11T23:16:37.369Z,14.84
2023-01-11T23:19:45.874Z,13.63
2023-01-11T23:22:53.932Z,14.78
2023-01-11T23:26:00.953Z,15.72
2023-01-11T23:29:08.267Z,15.61
2023-01-11T23:32:17.757Z,15.91
2023-01-11T23:35:24.194Z,16.00
2023-01-11T23:38:34.328Z,18.24
2023-01-11T23:41:52.792Z,17.01
2023-01-11T23:45:01.188Z,16.07
2023-01-11T23:48:07.495Z,14.42
2023-01-11T23:51:14.455Z,13.01
2023-01-11T23:54:20.873Z,14.61
2023-01-11T23:57:29.704Z,14.65
